Time;durP1;ratioP1;P1;durP2;ratioP2;P2;SDS_P1;SDS_P2;PMS_P1;PMS_P2;Temp;Humidity;BMP_temperature;BMP_pressure;BME280_temperature;BME280_humidity;BME280_pressure;Samples;Min_cycle;Max_cycle;Signal;HPM_P1;HPM_P2
2022/07/22 00:01:31;;;;;;;4.82;2.05;;;19.50;70.90;;;;;;4229134;28;20066;-64
2022/07/22 00:03:32;;;;;;;3.40;1.85;;;19.60;71.00;;;;;;4227146;28;20044;-64
2022/07/22 00:05:33;;;;;;;5.60;1.92;;;19.60;71.00;;;;;;4212444;28;20481;-72
2022/07/22 00:07:34;;;;;;;2.17;1.98;;;19.60;70.90;;;;;;4212614;28;20056;-68
2022/07/22 00:09:36;;;;;;;3.80;1.83;;;19.50;70.90;;;;;;4212630;28;20558;-65
2022/07/22 00:11:37;;;;;;;5.68;2.55;;;19.40;71.30;;;;;;4212466;28;20032;-70
2022/07/22 00:13:38;;;;;;;6.93;2.08;;;19.30;71.40;;;;;;4212743;28;20541;-67
2022/07/22 00:15:39;;;;;;;3.17;1.85;;;19.20;71.50;;;;;;4212330;28;20138;-64
2022/07/22 00:17:40;;;;;;;3.42;1.60;;;19.20;71.50;;;;;;4212610;28;20081;-64
2022/07/22 00:19:42;;;;;;;3.28;1.52;;;19.10;71.70;;;;;;4211915;28;20025;-67
2022/07/22 00:21:43;;;;;;;3.72;1.70;;;19.00;72.50;;;;;;4212539;28;20036;-63
2022/07/22 00:23:44;;;;;;;3.10;1.17;;;18.90;72.00;;;;;;4211781;28;20056;-62
2022/07/22 00:25:45;;;;;;;4.90;1.83;;;18.90;71.90;;;;;;4212679;28;20028;-60
2022/07/22 00:27:46;;;;;;;3.20;1.83;;;18.90;72.00;;;;;;4216199;28;20035;-67
2022/07/22 00:29:48;;;;;;;4.47;1.90;;;19.00;72.20;;;;;;4229460;28;20040;-63
2022/07/22 00:31:49;;;;;;;3.13;1.90;;;19.00;72.10;;;;;;4226417;28;20035;-69
2022/07/22 00:33:50;;;;;;;3.47;1.92;;;19.00;72.20;;;;;;4212035;28;20084;-65
2022/07/22 00:35:51;;;;;;;4.00;1.73;;;19.00;72.30;;;;;;4211613;28;20044;-64
2022/07/22 00:37:52;;;;;;;3.22;1.48;;;19.00;72.20;;;;;;4212495;28;20427;-63
2022/07/22 00:39:53;;;;;;;2.30;1.80;;;19.00;72.20;;;;;;4211662;28;20036;-63
2022/07/22 00:41:54;;;;;;;5.38;1.90;;;18.90;72.40;;;;;;4212151;28;20365;-65
2022/07/22 00:44:03;;;;;;;2.60;1.50;;;19.00;72.30;;;;;;4212285;28;20831;-62
2022/07/22 00:46:04;;;;;;;4.65;1.90;;;19.00;72.20;;;;;;4222251;28;20048;-63
2022/07/22 00:48:05;;;;;;;3.72;1.65;;;19.00;72.10;;;;;;4228782;28;20044;-62
2022/07/22 00:50:07;;;;;;;1.98;1.67;;;19.10;72.10;;;;;;4228234;28;20462;-64
2022/07/22 00:52:08;;;;;;;3.28;1.60;;;19.10;72.00;;;;;;4228996;28;20015;-69
2022/07/22 00:54:09;;;;;;;4.22;1.77;;;19.00;71.90;;;;;;4227854;27;20445;-66
2022/07/22 00:56:11;;;;;;;2.65;1.60;;;19.00;71.90;;;;;;4227395;28;20032;-61
2022/07/22 00:58:12;;;;;;;2.72;1.52;;;18.80;72.00;;;;;;4228162;28;20560;-63
2022/07/22 01:00:17;;;;;;;4.03;1.33;;;18.70;72.20;;;;;;4229030;28;20065;-62
2022/07/22 01:02:18;;;;;;;1.60;1.50;;;18.60;72.40;;;;;;4228153;28;20093;-63
2022/07/22 01:04:19;;;;;;;1.67;1.35;;;18.60;72.40;;;;;;4218770;28;20040;-62
2022/07/22 01:06:21;;;;;;;3.10;1.40;;;18.50;72.40;;;;;;4210021;28;20040;-66
2022/07/22 01:08:22;;;;;;;4.15;1.70;;;18.40;72.40;;;;;;4212078;28;20055;-63
2022/07/22 01:10:24;;;;;;;2.10;1.27;;;18.30;72.50;;;;;;4211637;28;20024;-62
2022/07/22 01:12:25;;;;;;;3.78;1.85;;;18.30;72.60;;;;;;4212131;28;20047;-66
2022/07/22 01:14:27;;;;;;;4.05;1.70;;;18.20;72.60;;;;;;4212054;28;20082;-69
2022/07/22 01:16:28;;;;;;;5.85;2.25;;;18.30;72.80;;;;;;4211920;28;20113;-63
2022/07/22 01:18:29;;;;;;;2.25;1.30;;;18.30;72.90;;;;;;4222184;28;20043;-63
2022/07/22 01:20:31;;;;;;;1.73;1.48;;;18.30;72.90;;;;;;4228029;28;20047;-64
2022/07/22 01:22:32;;;;;;;3.85;1.48;;;18.30;73.00;;;;;;4226138;28;20047;-65
2022/07/22 01:24:34;;;;;;;8.30;1.58;;;18.40;73.20;;;;;;4227853;28;20035;-68
2022/07/22 01:26:35;;;;;;;2.60;1.50;;;18.40;73.10;;;;;;4228395;28;20028;-65
2022/07/22 01:28:36;;;;;;;3.55;2.03;;;18.40;73.40;;;;;;4227545;28;20040;-64
2022/07/22 01:30:37;;;;;;;3.22;1.45;;;18.40;73.10;;;;;;4228602;28;20084;-62
2022/07/22 01:32:38;;;;;;;4.68;2.00;;;18.40;73.20;;;;;;4227349;27;20043;-70
2022/07/22 01:34:40;;;;;;;6.18;1.83;;;18.40;73.30;;;;;;4226310;27;20064;-63
2022/07/22 01:36:41;;;;;;;3.33;1.38;;;18.40;73.30;;;;;;4227316;28;20031;-71
2022/07/22 01:38:42;;;;;;;8.18;1.80;;;18.30;73.30;;;;;;4228304;28;20421;-64
2022/07/22 01:40:44;;;;;;;5.43;1.65;;;18.20;74.00;;;;;;4227415;28;20053;-63
2022/07/22 01:42:45;;;;;;;2.10;1.40;;;18.10;73.70;;;;;;4228573;28;20039;-64
2022/07/22 01:44:47;;;;;;;4.95;1.55;;;18.00;74.00;;;;;;4220616;28;20097;-64
2022/07/22 01:46:49;;;;;;;3.72;1.52;;;17.90;74.20;;;;;;4210982;28;20048;-72
2022/07/22 01:48:51;;;;;;;3.85;2.13;;;17.80;74.30;;;;;;4210930;28;20058;-63
2022/07/22 01:50:53;;;;;;;3.08;2.03;;;17.80;74.40;;;;;;4210614;28;20085;-65
2022/07/22 01:52:54;;;;;;;4.50;1.83;;;17.70;74.70;;;;;;4211138;28;20036;-70
2022/07/22 01:54:56;;;;;;;2.88;1.95;;;17.60;74.90;;;;;;4210636;28;20853;-64
2022/07/22 01:56:57;;;;;;;2.75;1.70;;;17.50;75.20;;;;;;4210949;28;20418;-68
2022/07/22 01:58:58;;;;;;;3.03;1.40;;;17.40;75.50;;;;;;4211461;28;20040;-63
2022/07/22 02:00:59;;;;;;;2.53;1.27;;;17.40;75.50;;;;;;4227773;28;20152;-70
2022/07/22 02:03:01;;;;;;;2.28;1.88;;;17.30;75.50;;;;;;4226951;28;20860;-63
2022/07/22 02:05:04;;;;;;;2.88;1.40;;;17.40;75.60;;;;;;4227986;28;20043;-62
2022/07/22 02:07:05;;;;;;;2.50;1.30;;;17.40;75.60;;;;;;4226387;28;20051;-67
2022/07/22 02:09:07;;;;;;;4.82;1.85;;;17.40;75.70;;;;;;4210994;28;20044;-64
2022/07/22 02:11:09;;;;;;;2.50;1.90;;;17.30;75.80;;;;;;4210088;28;20500;-63
2022/07/22 02:13:10;;;;;;;5.72;1.92;;;17.40;75.80;;;;;;4211308;28;20086;-65
2022/07/22 02:15:11;;;;;;;5.30;2.08;;;17.40;75.60;;;;;;4210202;28;20040;-64
2022/07/22 02:17:13;;;;;;;4.80;2.08;;;17.40;75.50;;;;;;4210513;28;20035;-67
2022/07/22 02:19:14;;;;;;;4.45;1.60;;;17.40;75.50;;;;;;4210212;28;20108;-66
2022/07/22 02:21:16;;;;;;;4.72;1.45;;;17.40;75.50;;;;;;4210657;28;20492;-63
2022/07/22 02:23:17;;;;;;;5.60;1.70;;;17.40;75.50;;;;;;4222253;28;20036;-71
2022/07/22 02:25:18;;;;;;;11.68;2.63;;;17.40;75.30;;;;;;4226851;28;20035;-63
2022/07/22 02:27:19;;;;;;;4.07;1.60;;;17.50;75.50;;;;;;4227336;28;20081;-64
2022/07/22 02:29:21;;;;;;;1.33;1.23;;;17.50;75.60;;;;;;4211226;28;20024;-63
2022/07/22 02:31:23;;;;;;;2.35;1.60;;;17.50;75.70;;;;;;4210705;28;20569;-64
2022/07/22 02:33:24;;;;;;;4.32;1.90;;;17.60;75.40;;;;;;4209770;28;20085;-64
2022/07/22 02:35:25;;;;;;;3.53;1.63;;;17.60;75.50;;;;;;4210887;28;20085;-65
2022/07/22 02:37:27;;;;;;;4.78;1.80;;;17.60;75.40;;;;;;4209629;28;20442;-72
2022/07/22 02:39:28;;;;;;;2.58;1.60;;;17.60;75.40;;;;;;4210676;28;20036;-67
2022/07/22 02:41:29;;;;;;;3.88;2.15;;;17.60;75.40;;;;;;4209888;28;20168;-63
2022/07/22 02:43:30;;;;;;;3.38;1.63;;;17.60;75.30;;;;;;4211283;28;20093;-69
2022/07/22 02:45:32;;;;;;;2.83;1.65;;;17.40;75.30;;;;;;4209647;28;20437;-65
2022/07/22 02:47:33;;;;;;;2.40;1.63;;;17.30;76.20;;;;;;4210546;28;20032;-64
2022/07/22 02:49:35;;;;;;;4.47;1.55;;;17.20;76.00;;;;;;4209703;28;20078;-64
2022/07/22 02:51:37;;;;;;;2.80;1.63;;;17.20;76.30;;;;;;4210141;28;20032;-64
2022/07/22 02:53:38;;;;;;;8.95;2.15;;;17.20;76.30;;;;;;4210360;28;20036;-63
2022/07/22 02:55:40;;;;;;;4.18;1.55;;;17.20;76.20;;;;;;4219586;28;20069;-64
2022/07/22 02:57:42;;;;;;;4.90;1.98;;;17.20;76.20;;;;;;4226470;28;20553;-63
2022/07/22 02:59:43;;;;;;;3.50;1.70;;;17.30;76.20;;;;;;4226411;28;20039;-69
2022/07/22 03:01:44;;;;;;;2.83;1.55;;;17.30;75.90;;;;;;4212712;28;20024;-66
2022/07/22 03:03:46;;;;;;;4.43;1.67;;;17.20;76.00;;;;;;4209433;28;20085;-72
2022/07/22 03:05:47;;;;;;;4.72;1.70;;;17.20;76.10;;;;;;4210576;28;20051;-63
2022/07/22 03:07:49;;;;;;;3.30;1.60;;;17.10;76.20;;;;;;4215291;28;20108;-63
2022/07/22 03:09:50;;;;;;;4.70;1.63;;;17.10;76.20;;;;;;4227153;28;20128;-66
2022/07/22 03:11:51;;;;;;;3.22;1.70;;;17.00;76.40;;;;;;4226019;28;20073;-70
2022/07/22 03:13:52;;;;;;;3.72;2.55;;;17.10;76.60;;;;;;4227330;28;20564;-68
2022/07/22 03:15:53;;;;;;;4.43;2.53;;;17.10;76.30;;;;;;4226015;28;20396;-63
2022/07/22 03:17:55;;;;;;;4.05;1.70;;;17.20;76.30;;;;;;4226737;28;20073;-71
2022/07/22 03:19:56;;;;;;;7.65;3.00;;;17.30;76.00;;;;;;4226019;28;20556;-65
2022/07/22 03:21:57;;;;;;;2.70;1.50;;;17.40;75.70;;;;;;4225563;28;20541;-68
2022/07/22 03:23:58;;;;;;;8.18;1.75;;;17.50;75.40;;;;;;4209602;28;20557;-69
2022/07/22 03:25:59;;;;;;;3.88;1.63;;;17.60;75.20;;;;;;4209507;28;20086;-69
2022/07/22 03:28:01;;;;;;;3.20;1.85;;;17.70;75.00;;;;;;4209777;28;20472;-66
2022/07/22 03:30:03;;;;;;;3.83;1.65;;;17.90;74.80;;;;;;4217048;28;20557;-72
2022/07/22 03:32:04;;;;;;;5.65;2.00;;;18.10;74.50;;;;;;4217008;28;20069;-64
2022/07/22 03:34:05;;;;;;;7.72;2.10;;;18.30;73.90;;;;;;4225691;28;20112;-63
2022/07/22 03:36:07;;;;;;;5.22;2.00;;;18.50;73.60;;;;;;4226256;28;20032;-62
2022/07/22 03:38:08;;;;;;;3.80;1.83;;;18.80;73.20;;;;;;4220560;28;20066;-62
2022/07/22 03:40:10;;;;;;;5.15;2.33;;;19.10;72.80;;;;;;4225060;28;20847;-64
2022/07/22 03:42:11;;;;;;;6.32;2.00;;;19.30;72.50;;;;;;4225408;28;20080;-62
2022/07/22 03:44:13;;;;;;;2.85;1.80;;;19.60;72.30;;;;;;4220781;28;20054;-68
2022/07/22 03:46:14;;;;;;;6.82;2.22;;;19.90;71.80;;;;;;4218423;28;20125;-69
2022/07/22 03:48:15;;;;;;;7.10;2.28;;;20.20;71.40;;;;;;4209317;28;20044;-63
2022/07/22 03:50:16;;;;;;;11.02;2.00;;;20.50;70.80;;;;;;4208805;28;20073;-64
2022/07/22 03:52:18;;;;;;;9.75;2.38;;;20.80;70.30;;;;;;4209502;28;20462;-62
2022/07/22 03:54:19;;;;;;;6.95;2.00;;;21.00;69.80;;;;;;4209071;28;20036;-67
2022/07/22 03:56:20;;;;;;;5.53;2.40;;;21.10;69.50;;;;;;4209196;28;20522;-64
2022/07/22 03:58:21;;;;;;;6.38;2.50;;;21.40;69.40;;;;;;4209422;28;20438;-70
2022/07/22 04:00:23;;;;;;;12.35;2.45;;;21.60;68.60;;;;;;4211560;28;20433;-67
2022/07/22 04:02:24;;;;;;;13.35;2.47;;;21.50;68.40;;;;;;4226308;28;20040;-63
2022/07/22 04:04:25;;;;;;;6.55;2.40;;;21.40;68.70;;;;;;4225511;28;20032;-62
2022/07/22 04:06:26;;;;;;;7.47;2.03;;;21.50;68.70;;;;;;4226497;28;20027;-68
2022/07/22 04:08:27;;;;;;;11.00;3.03;;;21.90;68.40;;;;;;4226983;28;20052;-65
2022/07/22 04:10:29;;;;;;;13.70;3.13;;;22.30;67.50;;;;;;4229728;28;20469;-64
2022/07/22 04:12:35;;;;;;;11.80;2.95;;;22.70;67.00;;;;;;4228682;28;20393;-75
2022/07/22 04:14:36;;;;;;;11.48;3.08;;;23.20;66.30;;;;;;4216426;28;20094;-61
2022/07/22 04:16:37;;;;;;;15.40;3.03;;;23.60;65.50;;;;;;4212122;28;20089;-63
2022/07/22 04:18:38;;;;;;;6.03;2.22;;;24.00;64.60;;;;;;4213048;28;20431;-64
2022/07/22 04:20:40;;;;;;;5.38;2.08;;;24.30;63.80;;;;;;4211591;28;20036;-63
2022/07/22 04:22:41;;;;;;;3.53;1.98;;;24.70;62.90;;;;;;4222171;28;20052;-64
2022/07/22 04:24:42;;;;;;;9.80;1.63;;;24.80;62.70;;;;;;4222153;28;20039;-64
2022/07/22 04:26:43;;;;;;;8.30;1.83;;;25.10;61.90;;;;;;4227038;28;20047;-71
2022/07/22 04:28:44;;;;;;;7.32;2.20;;;25.30;61.20;;;;;;4199575;27;20040;-67
2022/07/22 04:30:45;;;;;;;9.63;2.47;;;25.60;61.10;;;;;;4194996;28;20086;-64
2022/07/22 04:32:47;;;;;;;9.70;2.42;;;26.00;60.80;;;;;;4195347;28;20439;-63
2022/07/22 04:34:48;;;;;;;5.18;1.80;;;26.30;60.30;;;;;;4195012;28;20374;-64
2022/07/22 04:36:49;;;;;;;3.35;2.13;;;26.40;59.90;;;;;;4195594;28;20458;-65
2022/07/22 04:38:50;;;;;;;7.22;2.15;;;26.70;59.30;;;;;;4226142;28;20031;-65
2022/07/22 04:40:52;;;;;;;11.13;2.40;;;26.90;58.80;;;;;;4227379;28;20073;-65
2022/07/22 04:42:53;;;;;;;5.57;1.50;;;27.20;58.70;;;;;;4227873;28;20035;-70
2022/07/22 04:44:54;;;;;;;3.85;1.60;;;27.50;58.20;;;;;;4229140;28;20047;-67
2022/07/22 04:46:55;;;;;;;2.83;1.60;;;27.80;57.80;;;;;;4222565;28;20069;-72
2022/07/22 04:48:57;;;;;;;4.93;1.52;;;28.00;57.30;;;;;;4211151;28;20488;-67
2022/07/22 04:51:00;;;;;;;6.80;1.70;;;28.00;56.90;;;;;;4211238;28;20036;-73
2022/07/22 04:53:01;;;;;;;7.13;1.80;;;28.30;56.40;;;;;;4226832;28;20461;-66
2022/07/22 04:55:03;;;;;;;6.18;1.25;;;28.70;56.10;;;;;;4228178;28;20019;-65
2022/07/22 04:57:04;;;;;;;2.88;1.77;;;28.80;55.60;;;;;;4228410;28;20135;-71
2022/07/22 04:59:05;;;;;;;3.90;1.33;;;28.80;55.20;;;;;;4228263;28;20651;-65
2022/07/22 05:01:07;;;;;;;7.30;2.35;;;28.80;55.30;;;;;;4227610;28;20092;-67
2022/07/22 05:03:08;;;;;;;1.50;1.40;;;29.00;55.20;;;;;;4228542;28;20040;-67
2022/07/22 05:05:10;;;;;;;5.15;1.45;;;29.30;54.90;;;;;;4224413;28;20680;-67
2022/07/22 05:07:11;;;;;;;2.08;1.35;;;29.50;54.50;;;;;;4210716;28;20083;-69
2022/07/22 05:09:12;;;;;;;6.68;1.60;;;29.40;54.20;;;;;;4215413;28;20632;-64
2022/07/22 05:11:14;;;;;;;5.18;2.15;;;29.30;54.20;;;;;;4228182;28;20024;-63
2022/07/22 05:13:15;;;;;;;4.13;1.88;;;29.10;54.20;;;;;;4193974;28;20384;-63
2022/07/22 05:15:17;;;;;;;6.85;2.00;;;29.20;54.00;;;;;;4194942;28;20093;-63
2022/07/22 05:17:18;;;;;;;4.25;1.80;;;29.10;53.90;;;;;;4193950;28;20114;-66
2022/07/22 05:19:19;;;;;;;3.45;2.13;;;29.40;53.50;;;;;;4194527;28;20457;-71
2022/07/22 05:21:20;;;;;;;5.15;1.80;;;29.40;53.50;;;;;;4194163;28;20516;-64
2022/07/22 05:23:21;;;;;;;5.82;1.50;;;29.50;53.50;;;;;;4194572;28;20028;-66
2022/07/22 05:25:23;;;;;;;8.73;1.95;;;29.50;53.20;;;;;;4194261;28;20114;-72
2022/07/22 05:27:24;;;;;;;10.40;1.85;;;29.70;53.10;;;;;;4194701;28;20090;-65
2022/07/22 05:29:25;;;;;;;3.55;1.40;;;30.30;52.90;;;;;;4194373;28;20090;-66
2022/07/22 05:31:26;;;;;;;5.55;1.90;;;30.90;52.50;;;;;;4194314;28;20411;-65
2022/07/22 05:33:27;;;;;;;8.15;1.70;;;30.80;51.90;;;;;;4194701;28;20051;-67
2022/07/22 05:35:29;;;;;;;12.07;4.80;;;30.90;52.00;;;;;;4193972;28;20036;-67
2022/07/22 05:37:30;;;;;;;6.13;2.72;;;31.40;51.70;;;;;;4194413;28;20028;-64
2022/07/22 05:39:31;;;;;;;4.90;1.58;;;31.60;51.20;;;;;;4193740;28;20029;-67
2022/07/22 05:41:32;;;;;;;6.97;1.52;;;31.90;51.90;;;;;;4194335;28;20602;-64
2022/07/22 05:43:33;;;;;;;3.38;1.75;;;32.10;50.90;;;;;;4193778;28;20033;-65
2022/07/22 05:45:35;;;;;;;4.35;1.58;;;32.20;50.60;;;;;;4194515;28;20550;-66
2022/07/22 05:47:36;;;;;;;4.72;1.38;;;32.50;50.20;;;;;;4193449;28;20641;-68
2022/07/22 05:49:38;;;;;;;7.28;1.10;;;32.20;49.90;;;;;;4194268;28;20024;-72
2022/07/22 05:51:39;;;;;;;4.63;1.60;;;32.10;50.00;;;;;;4193748;28;20032;-71
2022/07/22 05:53:41;;;;;;;2.03;1.30;;;31.90;49.70;;;;;;4194120;28;20090;-65
2022/07/22 05:55:43;;;;;;;14.38;1.60;;;31.90;49.80;;;;;;4193490;28;20081;-70
2022/07/22 05:57:44;;;;;;;4.80;1.58;;;31.80;49.60;;;;;;4193852;28;20037;-72
2022/07/22 05:59:45;;;;;;;5.22;1.42;;;31.50;49.40;;;;;;4194040;28;20037;-64
2022/07/22 06:01:46;;;;;;;8.10;1.70;;;31.80;49.70;;;;;;4193731;28;20021;-71
2022/07/22 06:03:47;;;;;;;6.97;1.75;;;32.20;49.80;;;;;;4193767;28;20028;-69
2022/07/22 06:05:49;;;;;;;1.30;1.20;;;32.40;49.60;;;;;;4193266;28;20036;-65
2022/07/22 06:07:50;;;;;;;4.20;1.15;;;32.30;49.00;;;;;;4194001;28;20044;-63
2022/07/22 06:09:51;;;;;;;2.92;1.20;;;32.10;48.60;;;;;;4193028;28;20473;-63
2022/07/22 06:11:53;;;;;;;3.88;1.05;;;31.80;48.90;;;;;;4194151;28;20063;-65
2022/07/22 06:13:54;;;;;;;2.92;1.42;;;32.10;48.90;;;;;;4193460;28;20032;-63
2022/07/22 06:15:55;;;;;;;4.32;1.30;;;31.90;48.80;;;;;;4194422;28;20083;-64
2022/07/22 06:17:56;;;;;;;5.30;0.90;;;32.00;48.60;;;;;;4193381;28;20032;-62
2022/07/22 06:19:57;;;;;;;2.35;0.93;;;32.10;48.50;;;;;;4194610;28;20085;-63
2022/07/22 06:21:58;;;;;;;17.58;2.20;;;32.10;48.40;;;;;;4193334;28;20028;-63
2022/07/22 06:24:00;;;;;;;27.33;5.72;;;32.20;48.30;;;;;;4193834;28;20444;-64
2022/07/22 06:26:01;;;;;;;22.02;4.57;;;31.50;48.60;;;;;;4193162;28;20036;-64
2022/07/22 06:28:02;;;;;;;30.83;4.53;;;31.20;49.00;;;;;;4193535;28;20033;-68
2022/07/22 06:30:04;;;;;;;24.55;3.70;;;30.70;49.60;;;;;;4193058;28;20044;-64
2022/07/22 06:32:05;;;;;;;28.08;5.38;;;30.10;49.60;;;;;;4193013;28;20094;-64
2022/07/22 06:34:07;;;;;;;20.90;3.67;;;30.10;50.10;;;;;;4193517;28;20109;-71
2022/07/22 06:36:08;;;;;;;18.52;3.88;;;30.40;49.80;;;;;;4193102;28;20024;-72
2022/07/22 06:38:10;;;;;;;15.02;2.97;;;31.00;49.30;;;;;;4193846;28;20037;-71
2022/07/22 06:40:12;;;;;;;22.88;3.03;;;31.60;48.70;;;;;;4193102;28;20488;-71
2022/07/22 06:42:13;;;;;;;13.40;2.55;;;32.20;48.20;;;;;;4193315;28;20448;-64
2022/07/22 06:44:14;;;;;;;18.77;3.03;;;32.70;47.80;;;;;;4193296;28;20439;-69
2022/07/22 06:46:15;;;;;;;19.92;3.38;;;32.50;47.60;;;;;;4193914;28;20044;-64
2022/07/22 06:48:17;;;;;;;11.07;2.90;;;32.90;47.70;;;;;;4192583;28;20040;-68
2022/07/22 06:50:18;;;;;;;15.52;2.63;;;33.20;47.50;;;;;;4193570;28;20082;-65
2022/07/22 06:52:19;;;;;;;7.80;1.58;;;33.10;47.50;;;;;;4192636;28;20086;-70
2022/07/22 06:54:20;;;;;;;5.38;1.52;;;33.10;47.50;;;;;;4193171;28;20149;-70
2022/07/22 06:56:21;;;;;;;5.57;1.42;;;33.00;47.40;;;;;;4192710;28;20036;-65
2022/07/22 06:58:22;;;;;;;14.60;1.33;;;32.70;47.40;;;;;;4193441;28;20033;-63
2022/07/22 07:00:24;;;;;;;8.52;1.20;;;32.50;47.30;;;;;;4192951;28;20078;-71
2022/07/22 07:02:25;;;;;;;7.53;1.70;;;32.10;47.50;;;;;;4193039;28;20025;-73
2022/07/22 07:04:26;;;;;;;5.05;1.60;;;32.20;47.50;;;;;;4192620;28;20066;-66
2022/07/22 07:06:28;;;;;;;5.22;1.50;;;32.00;47.30;;;;;;4192978;28;20126;-65
2022/07/22 07:08:29;;;;;;;4.05;2.28;;;31.70;47.10;;;;;;4193013;28;20492;-67
2022/07/22 07:10:30;;;;;;;5.03;1.20;;;31.00;46.80;;;;;;4192694;28;20136;-71
2022/07/22 07:12:32;;;;;;;4.38;1.10;;;30.50;47.00;;;;;;4193327;28;20456;-65
2022/07/22 07:14:34;;;;;;;13.75;2.00;;;30.60;47.30;;;;;;4191228;28;20040;-63
2022/07/22 07:16:36;;;;;;;11.43;1.67;;;30.30;47.70;;;;;;4193061;28;20056;-69
2022/07/22 07:18:37;;;;;;;5.22;1.23;;;29.90;48.10;;;;;;4192109;28;20017;-65
2022/07/22 07:20:38;;;;;;;9.32;2.47;;;29.70;48.20;;;;;;4193147;28;20028;-72
2022/07/22 07:22:40;;;;;;;11.77;1.70;;;29.60;48.30;;;;;;4192229;28;20029;-68
2022/07/22 07:24:41;;;;;;;6.63;1.38;;;29.40;48.50;;;;;;4192755;28;20041;-63
2022/07/22 07:26:42;;;;;;;7.38;1.60;;;29.10;48.80;;;;;;4192120;28;20052;-64
2022/07/22 07:28:43;;;;;;;8.38;1.50;;;28.90;48.80;;;;;;4193090;28;20045;-64
2022/07/22 07:30:44;;;;;;;10.77;1.67;;;28.70;49.20;;;;;;4192276;28;20426;-63
2022/07/22 07:32:46;;;;;;;7.72;1.90;;;28.70;49.30;;;;;;4192763;28;20459;-66
2022/07/22 07:34:47;;;;;;;6.45;1.83;;;28.70;49.10;;;;;;4192209;28;20021;-65
2022/07/22 07:36:48;;;;;;;6.50;1.50;;;28.70;49.10;;;;;;4192314;28;20033;-64
2022/07/22 07:38:50;;;;;;;9.50;1.38;;;28.60;49.20;;;;;;4192908;28;20036;-64
2022/07/22 07:40:51;;;;;;;11.82;1.50;;;28.60;49.40;;;;;;4192216;28;20025;-64
2022/07/22 07:42:53;;;;;;;9.27;1.20;;;28.80;49.40;;;;;;4195205;28;20114;-62
2022/07/22 07:44:54;;;;;;;12.38;1.65;;;29.20;49.50;;;;;;4195822;28;20086;-63
2022/07/22 07:46:55;;;;;;;6.10;1.65;;;29.10;49.80;;;;;;4196450;28;20079;-65
2022/07/22 07:48:56;;;;;;;9.95;2.10;;;28.80;50.20;;;;;;4195193;28;20037;-66
2022/07/22 07:50:58;;;;;;;10.80;1.60;;;28.80;50.50;;;;;;4196163;28;20098;-64
2022/07/22 07:52:59;;;;;;;9.85;1.90;;;28.80;50.80;;;;;;4195526;28;20032;-65
2022/07/22 07:55:00;;;;;;;8.82;2.17;;;28.60;51.10;;;;;;4196444;28;20490;-69
2022/07/22 07:57:01;;;;;;;12.25;2.40;;;28.60;51.40;;;;;;4195102;28;20028;-67
2022/07/22 07:59:03;;;;;;;6.45;1.20;;;28.40;51.70;;;;;;4196069;28;20037;-63
2022/07/22 08:01:04;;;;;;;9.82;2.08;;;28.30;51.90;;;;;;4194861;28;20025;-63
2022/07/22 08:03:05;;;;;;;7.32;1.35;;;28.50;52.00;;;;;;4195702;28;20040;-70
2022/07/22 08:05:08;;;;;;;7.63;1.58;;;29.00;52.00;;;;;;4195153;28;20020;-63
2022/07/22 08:07:09;;;;;;;12.35;1.92;;;29.30;51.70;;;;;;4195002;28;20118;-64
2022/07/22 08:09:11;;;;;;;9.18;1.77;;;29.30;51.70;;;;;;4195668;28;20543;-67
2022/07/22 08:11:13;;;;;;;11.77;2.38;;;29.10;52.00;;;;;;4195108;28;20125;-73
2022/07/22 08:13:15;;;;;;;10.15;1.65;;;29.00;52.30;;;;;;4195682;28;20111;-64
2022/07/22 08:15:16;;;;;;;7.82;1.60;;;29.00;52.50;;;;;;4195237;28;20521;-63
2022/07/22 08:17:17;;;;;;;8.50;1.70;;;29.10;52.70;;;;;;4196340;28;20094;-64
2022/07/22 08:19:18;;;;;;;6.35;1.58;;;29.30;52.50;;;;;;4194907;28;20044;-69
2022/07/22 08:21:19;;;;;;;14.20;1.77;;;29.50;52.50;;;;;;4195873;28;20029;-67
2022/07/22 08:23:21;;;;;;;5.68;1.38;;;29.80;52.20;;;;;;4194437;28;20070;-64
2022/07/22 08:25:22;;;;;;;5.82;1.90;;;29.80;52.30;;;;;;4195716;28;20193;-68
2022/07/22 08:27:24;;;;;;;9.57;1.60;;;29.90;52.40;;;;;;4194724;28;20041;-67
2022/07/22 08:29:25;;;;;;;6.55;1.55;;;30.10;52.00;;;;;;4195474;28;20082;-72
2022/07/22 08:31:28;;;;;;;8.65;1.83;;;30.20;51.70;;;;;;4194755;28;20560;-66
2022/07/22 08:33:29;;;;;;;8.77;1.58;;;30.40;51.50;;;;;;4195420;28;20052;-72
2022/07/22 08:35:30;;;;;;;8.68;2.17;;;30.50;51.30;;;;;;4192837;28;20086;-72
2022/07/22 08:37:32;;;;;;;4.63;1.27;;;30.30;51.30;;;;;;4194650;28;20101;-70
2022/07/22 08:39:34;;;;;;;5.55;1.20;;;30.10;51.10;;;;;;4195057;28;20032;-72
2022/07/22 08:41:38;;;;;;;5.85;1.48;;;30.10;51.00;;;;;;4194651;28;20097;-67
2022/07/22 08:43:42;;;;;;;7.30;1.33;;;30.00;50.50;;;;;;4195697;28;20033;-73
2022/07/22 08:45:43;;;;;;;5.72;0.93;;;30.00;49.70;;;;;;4194491;28;20017;-73
2022/07/22 08:47:49;;;;;;;3.80;0.90;;;30.20;49.60;;;;;;4194512;28;20117;-70
2022/07/22 08:49:51;;;;;;;2.40;1.00;;;30.50;49.40;;;;;;4194376;28;20435;-69
2022/07/22 08:51:53;;;;;;;4.28;2.03;;;30.70;48.60;;;;;;4195228;28;20028;-64
2022/07/22 08:53:57;;;;;;;5.93;0.70;;;30.70;48.90;;;;;;4193602;28;20032;-64
2022/07/22 08:56:01;;;;;;;6.15;1.00;;;30.80;47.00;;;;;;4195246;28;20036;-64
2022/07/22 08:58:02;;;;;;;4.60;1.10;;;30.80;47.00;;;;;;4194332;28;20029;-66
2022/07/22 09:00:13;;;;;;;8.48;1.45;;;30.80;47.70;;;;;;4195311;28;20140;-70
2022/07/22 09:02:14;;;;;;;4.05;1.50;;;30.60;48.20;;;;;;4194216;28;20045;-64
2022/07/22 09:04:15;;;;;;;6.70;1.52;;;30.50;48.20;;;;;;4194787;28;20185;-65
2022/07/22 09:06:19;;;;;;;4.60;2.05;;;30.40;47.90;;;;;;4193681;28;20098;-68
2022/07/22 09:08:21;;;;;;;9.52;1.77;;;30.40;47.90;;;;;;4194994;28;20427;-62
2022/07/22 09:10:22;;;;;;;6.57;2.10;;;30.40;47.50;;;;;;4194289;28;20074;-65
2022/07/22 09:12:27;;;;;;;10.98;1.80;;;30.40;47.70;;;;;;4194876;28;20040;-66
2022/07/22 09:14:43;;;;;;;6.57;1.40;;;30.50;47.60;;;;;;4193289;28;20138;-70
2022/07/22 09:16:47;;;;;;;10.88;2.00;;;30.50;46.80;;;;;;4195303;28;20107;-63
2022/07/22 09:18:53;;;;;;;9.65;2.10;;;30.60;47.50;;;;;;4194240;28;20021;-65
2022/07/22 09:20:59;;;;;;;10.38;1.77;;;30.80;47.20;;;;;;4194721;28;20033;-73
2022/07/22 09:23:01;;;;;;;5.53;1.40;;;31.10;47.30;;;;;;4194402;28;21142;-66
2022/07/22 09:25:17;;;;;;;4.50;0.90;;;31.30;47.00;;;;;;4194521;28;20033;-69
2022/07/22 09:27:26;;;;;;;2.33;1.33;;;31.40;46.10;;;;;;4193952;28;20469;-68
2022/07/22 09:29:27;;;;;;;5.45;1.50;;;31.60;46.40;;;;;;4194163;28;20416;-66
2022/07/22 09:31:31;;;;;;;8.88;1.55;;;31.80;46.40;;;;;;4194251;28;20086;-69
2022/07/22 09:33:34;;;;;;;3.60;1.10;;;31.80;46.30;;;;;;4194037;28;20118;-68
2022/07/22 09:35:35;;;;;;;4.85;1.10;;;31.90;46.20;;;;;;4194317;28;20094;-68
2022/07/22 09:37:50;;;;;;;12.05;2.13;;;32.00;46.30;;;;;;4193680;28;20040;-73
2022/07/22 09:39:51;;;;;;;6.78;1.10;;;32.10;45.70;;;;;;4194032;28;20086;-73
2022/07/22 09:42:03;;;;;;;5.93;1.52;;;32.10;46.20;;;;;;4193503;28;20534;-67
2022/07/22 09:44:31;;;;;;;7.80;1.25;;;32.20;46.50;;;;;;4194590;28;20082;-70
2022/07/22 09:46:38;;;;;;;11.30;1.10;;;32.20;46.20;;;;;;4191625;28;20448;-66
2022/07/22 09:48:41;;;;;;;5.28;1.20;;;32.30;46.30;;;;;;4193890;28;20826;-71
2022/07/22 09:50:42;;;;;;;8.55;1.40;;;32.40;46.50;;;;;;4193646;28;20094;-70
2022/07/22 09:52:44;;;;;;;12.35;2.00;;;32.50;46.40;;;;;;4193869;28;20078;-72
2022/07/22 09:54:45;;;;;;;11.73;1.77;;;32.70;46.70;;;;;;4193061;28;20021;-69
2022/07/22 09:56:46;;;;;;;7.85;1.65;;;32.80;46.50;;;;;;4194046;28;20036;-69
2022/07/22 09:58:48;;;;;;;9.38;2.03;;;32.70;46.30;;;;;;4193562;28;20366;-72
2022/07/22 10:00:51;;;;;;;13.50;1.88;;;32.40;46.60;;;;;;4194109;28;20036;-66
2022/07/22 10:02:57;;;;;;;11.90;1.70;;;32.30;46.70;;;;;;4193033;28;20020;-72
2022/07/22 10:05:01;;;;;;;6.85;1.50;;;32.50;46.80;;;;;;4193412;28;20089;-70
2022/07/22 10:07:03;;;;;;;9.75;1.75;;;32.50;46.90;;;;;;4192411;28;20033;-73
2022/07/22 10:09:06;;;;;;;7.18;1.50;;;32.40;46.80;;;;;;4193892;28;20029;-68
2022/07/22 10:11:08;;;;;;;8.77;1.52;;;32.50;47.00;;;;;;4193237;28;20029;-70
2022/07/22 10:13:09;;;;;;;6.13;1.60;;;32.60;46.90;;;;;;4193794;28;20366;-72
2022/07/22 10:15:12;;;;;;;6.70;1.55;;;32.70;46.80;;;;;;4193756;28;20086;-71
2022/07/22 10:17:16;;;;;;;13.88;1.67;;;32.70;46.70;;;;;;4193350;28;20469;-73
2022/07/22 10:19:17;;;;;;;9.35;2.60;;;32.50;46.70;;;;;;4193055;28;20480;-70
2022/07/22 10:21:30;;;;;;;7.40;2.25;;;32.30;46.80;;;;;;4193252;28;20025;-71
2022/07/22 10:23:31;;;;;;;5.13;1.40;;;32.20;46.80;;;;;;4193129;28;20078;-72
2022/07/22 10:25:56;;;;;;;9.90;1.98;;;32.10;47.00;;;;;;4193039;28;20110;-70
2022/07/22 10:27:58;;;;;;;11.88;1.45;;;31.90;47.00;;;;;;4192789;28;20431;-71
2022/07/22 10:30:00;;;;;;;3.55;1.33;;;31.90;47.40;;;;;;4192972;28;20090;-74
2022/07/22 10:32:16;;;;;;;4.35;1.48;;;31.90;47.30;;;;;;4193249;28;20115;-71
2022/07/22 10:34:17;;;;;;;3.70;1.85;;;31.90;47.00;;;;;;4192993;28;20490;-73